createdAt,value
2022-11-23T00:01:01.043Z,2.17
2022-11-23T00:03:30.016Z,2.67
2022-11-23T00:05:57.771Z,2.17
2022-11-23T00:08:25.372Z,1.73
2022-11-23T00:10:53.032Z,1.73
2022-11-23T00:13:20.662Z,2.60
2022-11-23T00:15:48.315Z,2.00
2022-11-23T00:18:16.013Z,2.57
2022-11-23T00:20:45.047Z,1.87
2022-11-23T00:23:12.726Z,2.27
2022-11-23T00:25:40.539Z,2.90
2022-11-23T00:28:08.187Z,2.43
2022-11-23T00:30:35.820Z,2.07
2022-11-23T00:33:03.292Z,2.07
2022-11-23T00:35:30.724Z,1.67
2022-11-23T00:37:59.568Z,2.80
2022-11-23T00:40:27.093Z,2.13
2022-11-23T00:42:54.574Z,2.83
2022-11-23T00:45:22.031Z,2.40
2022-11-23T00:47:49.512Z,2.53
2022-11-23T00:50:17.882Z,2.63
2022-11-23T00:52:45.412Z,2.20
2022-11-23T00:55:14.308Z,3.13
2022-11-23T00:57:41.794Z,1.50
2022-11-23T01:00:12.435Z,2.20
2022-11-23T01:02:39.955Z,2.13
2022-11-23T01:05:08.058Z,2.37
2022-11-23T01:07:35.604Z,2.35
2022-11-23T01:10:03.394Z,1.40
2022-11-23T01:12:32.236Z,1.77
2022-11-23T01:14:59.798Z,1.97
2022-11-23T01:17:27.335Z,1.13
2022-11-23T01:19:54.860Z,1.93
2022-11-23T01:22:22.870Z,1.97
2022-11-23T01:24:51.276Z,2.43
2022-11-23T01:27:18.815Z,2.23
2022-11-23T01:29:47.715Z,2.67
2022-11-23T01:32:15.344Z,2.10
2022-11-23T01:34:42.848Z,1.57
2022-11-23T01:37:10.357Z,1.43
2022-11-23T01:39:37.880Z,1.37
2022-11-23T01:42:08.007Z,1.63
2022-11-23T01:44:38.396Z,2.10
2022-11-23T01:47:09.383Z,1.67
2022-11-23T01:49:40.305Z,1.80
2022-11-23T01:52:12.639Z,2.00
2022-11-23T01:54:44.546Z,1.47
2022-11-23T01:57:16.276Z,2.03
2022-11-23T01:59:43.976Z,1.27
2022-11-23T02:02:13.721Z,1.80
2022-11-23T02:04:44.204Z,1.50
2022-11-23T02:07:12.052Z,2.23
2022-11-23T02:09:40.216Z,1.27
2022-11-23T02:12:11.942Z,1.97
2022-11-23T02:14:40.085Z,2.03
2022-11-23T02:17:07.857Z,1.60
2022-11-23T02:19:49.016Z,1.10
2022-11-23T02:22:24.988Z,1.30
2022-11-23T02:24:55.877Z,1.20
2022-11-23T02:27:27.846Z,1.43
2022-11-23T02:29:56.197Z,1.47
2022-11-23T02:32:25.770Z,2.03
2022-11-23T02:34:53.264Z,1.87
2022-11-23T02:37:20.796Z,2.23
2022-11-23T02:39:52.047Z,1.43
2022-11-23T02:42:19.786Z,1.43
2022-11-23T02:44:57.479Z,1.67
2022-11-23T02:47:25.045Z,1.57
2022-11-23T02:49:52.575Z,1.67
2022-11-23T02:52:20.310Z,1.40
2022-11-23T02:54:47.857Z,1.77
2022-11-23T02:57:15.907Z,1.57
2022-11-23T02:59:43.314Z,1.33
2022-11-23T03:04:57.276Z,1.83
2022-11-23T03:07:24.800Z,2.13
2022-11-23T03:09:52.295Z,2.40
2022-11-23T03:12:19.784Z,1.50
2022-11-23T03:14:47.278Z,2.30
2022-11-23T03:17:16.152Z,1.83
2022-11-23T03:19:43.699Z,2.10
2022-11-23T03:22:11.379Z,1.90
2022-11-23T03:24:38.968Z,1.90
2022-11-23T03:27:06.538Z,1.85
2022-11-23T03:29:34.458Z,1.50
2022-11-23T03:32:02.085Z,1.83
2022-11-23T03:34:30.964Z,1.83
2022-11-23T03:36:58.396Z,1.90
2022-11-23T03:39:25.931Z,1.43
2022-11-23T03:41:53.771Z,2.93
2022-11-23T03:44:21.251Z,1.07
2022-11-23T03:46:50.324Z,2.10
2022-11-23T03:49:18.222Z,2.37
2022-11-23T03:51:47.000Z,1.87
2022-11-23T03:54:14.482Z,1.33
2022-11-23T03:56:41.992Z,1.80
2022-11-23T04:01:55.001Z,1.43
2022-11-23T04:04:22.509Z,1.30
2022-11-23T04:06:51.332Z,2.20
2022-11-23T04:09:18.866Z,1.40
2022-11-23T04:11:46.332Z,1.67
2022-11-23T04:14:13.784Z,1.98
2022-11-23T04:16:41.251Z,2.07
2022-11-23T04:19:08.889Z,1.57
2022-11-23T04:21:36.451Z,1.47
2022-11-23T04:24:05.815Z,1.40
2022-11-23T04:26:33.374Z,1.83
2022-11-23T04:29:00.870Z,1.53
2022-11-23T04:31:28.360Z,1.40
2022-11-23T04:33:57.336Z,1.23
2022-11-23T04:36:24.883Z,1.80
2022-11-23T04:38:53.605Z,1.43
2022-11-23T04:41:23.020Z,1.23
2022-11-23T04:43:51.746Z,2.07
2022-11-23T04:46:19.763Z,1.57
2022-11-23T04:48:47.374Z,1.83
2022-11-23T04:51:16.195Z,1.80
2022-11-23T04:53:43.701Z,3.00
2022-11-23T04:56:11.230Z,1.60
2022-11-23T04:58:40.124Z,2.07
2022-11-23T05:01:08.144Z,1.77
2022-11-23T05:03:35.909Z,1.80
2022-11-23T05:06:04.709Z,1.80
2022-11-23T05:08:33.056Z,2.20
2022-11-23T05:11:00.583Z,1.73
2022-11-23T05:13:30.394Z,1.97
2022-11-23T05:15:59.183Z,1.70
2022-11-23T05:18:26.789Z,1.57
2022-11-23T05:20:54.437Z,1.97
2022-11-23T05:23:21.948Z,2.73
2022-11-23T05:25:49.489Z,1.87
2022-11-23T05:28:39.185Z,1.67
2022-11-23T05:31:10.697Z,1.60
2022-11-23T05:33:38.244Z,1.60
2022-11-23T05:36:06.417Z,1.40
2022-11-23T05:38:33.900Z,2.13
2022-11-23T05:41:01.353Z,1.50
2022-11-23T05:43:28.882Z,1.43
2022-11-23T05:46:00.232Z,1.40
2022-11-23T05:48:29.291Z,1.83
2022-11-23T05:51:02.178Z,1.97
2022-11-23T05:53:32.677Z,1.20
2022-11-23T05:56:01.315Z,1.37
2022-11-23T05:58:29.552Z,1.47
2022-11-23T06:00:58.756Z,1.43
2022-11-23T06:03:26.646Z,2.03
2022-11-23T06:05:55.496Z,2.13
2022-11-23T06:08:22.951Z,2.00
2022-11-23T06:10:50.396Z,2.77
2022-11-23T06:13:17.918Z,2.20
2022-11-23T06:15:45.447Z,2.00
2022-11-23T06:18:13.254Z,3.13
2022-11-23T06:20:40.660Z,1.70
2022-11-23T06:23:09.520Z,1.03
2022-11-23T06:25:38.633Z,1.80
2022-11-23T06:28:06.716Z,2.20
2022-11-23T06:30:34.644Z,1.53
2022-11-23T06:33:04.438Z,2.13
2022-11-23T06:35:32.009Z,2.30
2022-11-23T06:38:02.141Z,2.40
2022-11-23T06:40:31.603Z,1.93
2022-11-23T06:43:00.869Z,1.93
2022-11-23T06:45:28.598Z,2.63
2022-11-23T06:47:57.320Z,2.17
2022-11-23T06:50:25.064Z,1.63
2022-11-23T06:52:56.157Z,2.00
2022-11-23T06:55:24.178Z,2.17
2022-11-23T06:57:53.382Z,1.43
2022-11-23T07:00:21.463Z,2.33
2022-11-23T07:02:53.053Z,1.87
2022-11-23T07:05:21.142Z,2.57
2022-11-23T07:07:49.223Z,2.20
2022-11-23T07:10:17.989Z,1.67
2022-11-23T07:12:46.021Z,2.33
2022-11-23T07:15:15.048Z,2.27
2022-11-23T07:17:44.348Z,2.47
2022-11-23T07:20:13.837Z,2.33
2022-11-23T07:22:41.621Z,2.13
2022-11-23T07:25:11.357Z,2.10
2022-11-23T07:27:39.025Z,1.97
2022-11-23T07:30:08.133Z,2.20
2022-11-23T07:32:37.273Z,2.40
2022-11-23T07:35:05.510Z,2.33
2022-11-23T07:37:33.261Z,1.80
2022-11-23T07:40:01.412Z,2.27
2022-11-23T07:42:36.831Z,2.83
2022-11-23T07:45:10.437Z,1.87
2022-11-23T07:47:39.938Z,2.20
2022-11-23T07:50:09.503Z,1.90
2022-11-23T07:52:38.191Z,2.10
2022-11-23T07:55:06.963Z,2.37
2022-11-23T07:57:34.703Z,3.03
2022-11-23T08:00:02.625Z,2.83
2022-11-23T08:02:30.338Z,2.57
2022-11-23T08:04:59.329Z,3.37
2022-11-23T08:07:27.016Z,2.67
2022-11-23T08:09:54.755Z,2.93
2022-11-23T08:12:22.623Z,2.20
2022-11-23T08:14:50.320Z,3.20
2022-11-23T08:17:17.980Z,2.20
2022-11-23T08:19:45.811Z,1.95
2022-11-23T08:22:16.620Z,2.03
2022-11-23T08:24:44.242Z,1.90
2022-11-23T08:27:11.883Z,1.77
2022-11-23T08:29:39.563Z,1.77
2022-11-23T08:32:07.283Z,2.00
2022-11-23T08:34:35.208Z,2.03
2022-11-23T08:37:02.918Z,1.77
2022-11-23T08:39:31.954Z,2.27
2022-11-23T08:41:59.589Z,1.88
2022-11-23T08:44:27.305Z,2.83
2022-11-23T08:46:55.413Z,2.30
2022-11-23T08:49:23.043Z,2.67
2022-11-23T08:51:50.737Z,3.33
2022-11-23T08:54:18.535Z,2.43
2022-11-23T08:56:47.582Z,1.93
2022-11-23T08:59:17.037Z,2.63
2022-11-23T09:01:45.169Z,2.10
2022-11-23T09:04:17.744Z,1.73
2022-11-23T09:06:48.160Z,2.00
2022-11-23T09:09:16.066Z,2.20
2022-11-23T09:11:43.772Z,2.40
2022-11-23T09:14:12.870Z,2.20
2022-11-23T09:16:40.697Z,2.33
2022-11-23T09:19:08.367Z,1.73
2022-11-23T09:21:39.061Z,3.43
2022-11-23T09:24:07.641Z,1.90
2022-11-23T09:26:35.368Z,1.50
2022-11-23T09:29:02.997Z,2.00
2022-11-23T09:31:32.040Z,1.15
2022-11-23T09:33:59.704Z,2.25
2022-11-23T09:36:27.383Z,2.30
2022-11-23T09:38:57.253Z,2.30
2022-11-23T09:41:51.670Z,1.48
2022-11-23T09:44:25.347Z,2.25
2022-11-23T09:47:07.160Z,1.83
2022-11-23T09:49:45.720Z,1.77
2022-11-23T09:52:17.647Z,1.88
2022-11-23T09:54:48.273Z,2.08
2022-11-23T09:57:22.600Z,1.77
2022-11-23T09:59:54.529Z,2.50
2022-11-23T10:02:28.725Z,1.77
2022-11-23T10:04:59.783Z,1.85
2022-11-23T10:07:44.753Z,2.28
2022-11-23T10:10:28.121Z,1.55
2022-11-23T10:13:05.464Z,1.83
2022-11-23T10:15:40.607Z,1.95
2022-11-23T10:18:25.247Z,2.38
2022-11-23T10:21:00.369Z,3.42
2022-11-23T10:23:40.732Z,3.17
2022-11-23T10:26:13.912Z,2.15
2022-11-23T10:28:41.695Z,2.78
2022-11-23T10:31:14.745Z,3.13
2022-11-23T10:33:54.380Z,1.60
2022-11-23T10:36:22.037Z,1.67
2022-11-23T10:38:52.226Z,1.67
2022-11-23T10:41:19.948Z,1.67
2022-11-23T10:43:54.756Z,2.03
2022-11-23T10:46:29.119Z,1.73
2022-11-23T10:49:11.209Z,2.25
2022-11-23T10:51:39.246Z,1.90
2022-11-23T10:54:20.986Z,1.65
2022-11-23T10:56:50.049Z,2.67
2022-11-23T10:59:28.785Z,1.77
2022-11-23T11:02:19.689Z,1.20
2022-11-23T11:04:54.450Z,1.90
2022-11-23T11:07:29.330Z,2.00
2022-11-23T11:09:58.799Z,2.05
2022-11-23T11:12:27.829Z,1.90
2022-11-23T11:15:10.811Z,1.42
2022-11-23T11:17:41.849Z,1.27
2022-11-23T11:20:32.454Z,2.22
2022-11-23T11:23:03.035Z,1.83
2022-11-23T11:25:33.618Z,2.40
2022-11-23T11:28:03.292Z,1.75
2022-11-23T11:30:42.544Z,1.67
2022-11-23T11:33:16.777Z,1.33
2022-11-23T11:35:50.219Z,2.13
2022-11-23T11:38:23.668Z,2.22
2022-11-23T11:40:52.944Z,1.85
2022-11-23T11:43:34.716Z,1.42
2022-11-23T11:46:29.134Z,2.58
2022-11-23T11:49:04.594Z,1.30
2022-11-23T11:51:40.405Z,2.08
2022-11-23T11:54:16.589Z,2.83
2022-11-23T11:56:45.877Z,1.70
2022-11-23T11:59:18.883Z,2.13
2022-11-23T12:01:55.164Z,2.13
2022-11-23T12:04:29.249Z,2.17
2022-11-23T12:07:06.660Z,4.15
2022-11-23T12:09:40.713Z,1.98
2022-11-23T12:12:16.112Z,1.35
2022-11-23T12:14:44.901Z,1.70
2022-11-23T12:17:37.617Z,2.67
2022-11-23T12:20:13.158Z,2.30
2022-11-23T12:22:57.202Z,2.08
2022-11-23T12:25:33.358Z,2.60
2022-11-23T12:28:16.853Z,2.17
2022-11-23T12:30:52.573Z,2.20
2022-11-23T12:33:44.637Z,2.05
2022-11-23T12:36:42.204Z,1.98
2022-11-23T12:39:28.563Z,2.08
2022-11-23T12:42:02.637Z,2.08
2022-11-23T12:45:07.251Z,2.55
2022-11-23T12:47:48.834Z,2.30
2022-11-23T12:50:21.960Z,1.80
2022-11-23T12:53:06.240Z,2.15
2022-11-23T12:55:46.790Z,1.38
2022-11-23T12:58:22.183Z,2.00
2022-11-23T13:00:55.161Z,1.50
2022-11-23T13:03:47.580Z,1.60
2022-11-23T13:07:26.394Z,2.13
2022-11-23T13:09:55.561Z,3.83
2022-11-23T13:12:39.564Z,3.65
2022-11-23T13:15:28.142Z,2.78
2022-11-23T13:18:06.826Z,1.65
2022-11-23T13:21:00.666Z,1.00
2022-11-23T13:23:28.661Z,1.33
2022-11-23T13:26:19.256Z,2.03
2022-11-23T13:28:49.791Z,1.60
2022-11-23T13:31:27.243Z,2.15
2022-11-23T13:33:56.796Z,1.80
2022-11-23T13:37:15.297Z,2.05
2022-11-23T13:40:03.698Z,1.50
2022-11-23T13:42:34.978Z,1.58
2022-11-23T13:45:26.597Z,3.25
2022-11-23T13:51:06.761Z,2.80
2022-11-23T13:53:36.539Z,1.88
2022-11-23T13:56:27.849Z,1.45
2022-11-23T13:58:56.734Z,1.60
2022-11-23T14:02:03.056Z,1.55
2022-11-23T14:04:32.459Z,1.63
2022-11-23T14:07:04.885Z,2.78
2022-11-23T14:09:37.450Z,6.93
2022-11-23T14:12:15.716Z,4.70
2022-11-23T14:14:56.288Z,2.85
2022-11-23T14:17:57.034Z,2.67
2022-11-23T14:20:56.505Z,2.05
2022-11-23T14:24:08.869Z,2.88
2022-11-23T14:26:50.084Z,1.83
2022-11-23T14:29:41.513Z,2.08
2022-11-23T14:32:25.247Z,3.35
2022-11-23T14:35:11.535Z,2.25
2022-11-23T14:37:57.859Z,1.92
2022-11-23T14:40:30.096Z,2.63
2022-11-23T14:42:59.056Z,2.90
2022-11-23T14:45:31.303Z,1.55
2022-11-23T14:48:19.406Z,1.95
2022-11-23T14:50:56.374Z,2.13
2022-11-23T14:53:30.271Z,2.05
2022-11-23T14:55:59.275Z,2.05
2022-11-23T14:58:31.809Z,2.08
2022-11-23T15:01:01.028Z,2.72
2022-11-23T15:06:19.417Z,1.73
2022-11-23T15:08:53.920Z,1.42
2022-11-23T15:11:24.537Z,1.58
2022-11-23T15:13:55.114Z,1.90
2022-11-23T15:16:23.193Z,1.88
2022-11-23T15:18:51.927Z,2.05
2022-11-23T15:21:26.813Z,2.33
2022-11-23T15:23:59.954Z,2.08
2022-11-23T15:29:36.535Z,1.60
2022-11-23T15:32:30.806Z,2.30
2022-11-23T15:35:02.785Z,2.90
2022-11-23T15:37:31.574Z,2.13
2022-11-23T15:40:01.511Z,1.85
2022-11-23T15:42:29.888Z,1.58
2022-11-23T15:44:57.676Z,2.90
2022-11-23T15:47:28.409Z,1.90
2022-11-23T15:50:02.134Z,2.08
2022-11-23T15:52:34.599Z,1.63
2022-11-23T15:55:09.647Z,2.40
2022-11-23T15:57:39.752Z,1.98
2022-11-23T16:00:10.565Z,2.33
2022-11-23T16:02:38.983Z,2.35
2022-11-23T16:05:14.378Z,2.08
2022-11-23T16:07:53.390Z,2.10
2022-11-23T16:10:24.570Z,2.50
2022-11-23T16:12:53.815Z,2.28
2022-11-23T16:15:41.237Z,2.35
2022-11-23T16:18:21.720Z,2.45
2022-11-23T16:20:52.880Z,3.22
2022-11-23T16:23:22.268Z,3.10
2022-11-23T16:25:57.988Z,2.45
2022-11-23T16:28:29.946Z,2.88
2022-11-23T16:30:58.207Z,2.25
2022-11-23T16:33:26.452Z,2.08
2022-11-23T16:35:54.597Z,2.30
2022-11-23T16:38:23.690Z,2.25
2022-11-23T16:40:51.532Z,2.28
2022-11-23T16:43:20.542Z,2.65
2022-11-23T16:45:51.611Z,2.70
2022-11-23T16:48:38.804Z,2.83
2022-11-23T16:51:07.205Z,2.53
2022-11-23T16:54:07.882Z,4.05
2022-11-23T16:56:25.137Z,2.60
2022-11-23T16:58:55.451Z,3.58
2022-11-23T17:01:25.328Z,2.58
2022-11-23T17:03:53.409Z,2.50
2022-11-23T17:06:23.205Z,4.03
2022-11-23T17:08:59.371Z,2.95
2022-11-23T17:11:29.559Z,3.15
2022-11-23T17:13:59.492Z,3.40
2022-11-23T17:16:27.583Z,2.97
2022-11-23T17:18:55.248Z,2.85
2022-11-23T17:21:22.920Z,3.47
2022-11-23T17:23:51.860Z,3.03
2022-11-23T17:26:31.683Z,3.75
2022-11-23T17:29:03.352Z,3.40
2022-11-23T17:31:31.631Z,3.22
2022-11-23T17:33:59.512Z,3.05
2022-11-23T17:36:27.609Z,2.92
2022-11-23T17:38:55.601Z,3.22
2022-11-23T17:41:23.378Z,2.92
2022-11-23T17:43:51.066Z,3.80
2022-11-23T17:46:23.686Z,2.83
2022-11-23T17:48:55.051Z,3.80
2022-11-23T17:51:22.752Z,3.97
2022-11-23T17:53:50.883Z,4.57
2022-11-23T17:56:20.362Z,2.65
2022-11-23T17:58:48.030Z,2.72
2022-11-23T18:01:17.984Z,4.00
2022-11-23T18:03:47.967Z,3.28
2022-11-23T18:06:16.926Z,3.55
2022-11-23T18:08:45.933Z,3.92
2022-11-23T18:11:13.686Z,3.97
2022-11-23T18:13:42.161Z,4.95
2022-11-23T18:16:10.958Z,4.55
2022-11-23T18:18:39.292Z,4.45
2022-11-23T18:21:09.701Z,5.22
2022-11-23T18:23:37.867Z,5.13
2022-11-23T18:26:14.020Z,4.72
2022-11-23T18:28:41.957Z,3.88
2022-11-23T18:31:10.247Z,4.50
2022-11-23T18:33:38.292Z,4.88
2022-11-23T18:36:08.349Z,4.82
2022-11-23T18:38:36.102Z,5.10
2022-11-23T18:41:03.740Z,3.63
2022-11-23T18:43:31.642Z,3.60
2022-11-23T18:45:59.845Z,5.75
2022-11-23T18:48:27.742Z,6.07
2022-11-23T18:50:55.414Z,3.40
2022-11-23T18:53:24.439Z,4.13
2022-11-23T18:55:56.157Z,4.10
2022-11-23T18:58:26.791Z,3.95
2022-11-23T19:00:54.487Z,3.20
2022-11-23T19:03:22.257Z,4.43
2022-11-23T19:05:49.981Z,3.20
2022-11-23T19:08:17.742Z,2.83
2022-11-23T19:10:47.084Z,3.25
2022-11-23T19:13:14.907Z,3.33
2022-11-23T19:15:43.776Z,3.33
2022-11-23T19:18:11.641Z,3.83
2022-11-23T19:20:40.042Z,3.20
2022-11-23T19:23:08.353Z,3.10
2022-11-23T19:25:36.023Z,3.05
2022-11-23T19:28:05.219Z,3.78
2022-11-23T19:30:32.931Z,3.67
2022-11-23T19:33:00.572Z,3.28
2022-11-23T19:35:28.553Z,4.28
2022-11-23T19:37:56.487Z,3.10
2022-11-23T19:40:26.622Z,4.00
2022-11-23T19:42:54.307Z,3.95
2022-11-23T19:45:23.273Z,3.20
2022-11-23T19:47:50.945Z,2.83
2022-11-23T19:50:18.942Z,3.30
2022-11-23T19:53:11.386Z,4.18
2022-11-23T19:55:34.335Z,3.42
2022-11-23T19:58:01.999Z,4.90
2022-11-23T20:00:31.005Z,3.53
2022-11-23T20:02:59.318Z,3.05
2022-11-23T20:05:27.252Z,4.05
2022-11-23T20:07:55.067Z,4.55
2022-11-23T20:10:22.777Z,4.70
2022-11-23T20:12:50.444Z,8.07
2022-11-23T20:15:18.185Z,5.93
2022-11-23T20:17:48.741Z,5.78
2022-11-23T20:20:17.248Z,7.10
2022-11-23T20:22:45.184Z,4.43
2022-11-23T20:25:13.242Z,4.47
2022-11-23T20:27:41.613Z,3.25
2022-11-23T20:30:10.340Z,3.30
2022-11-23T20:32:38.032Z,4.22
2022-11-23T20:35:08.094Z,3.85
2022-11-23T20:37:35.817Z,3.38
2022-11-23T20:40:04.018Z,2.75
2022-11-23T20:42:31.676Z,2.97
2022-11-23T20:44:59.358Z,3.00
2022-11-23T20:47:27.939Z,2.83
2022-11-23T20:49:55.703Z,3.40
2022-11-23T20:52:24.699Z,3.05
2022-11-23T20:54:52.543Z,3.50
2022-11-23T20:57:21.869Z,2.92
2022-11-23T20:59:50.164Z,3.40
2022-11-23T21:02:17.927Z,3.05
2022-11-23T21:04:46.457Z,2.65
2022-11-23T21:07:14.617Z,3.92
2022-11-23T21:09:43.844Z,3.03
2022-11-23T21:12:29.034Z,3.70
2022-11-23T21:14:56.817Z,2.67
2022-11-23T21:17:24.511Z,2.58
2022-11-23T21:19:52.334Z,2.42
2022-11-23T21:22:20.113Z,2.30
2022-11-23T21:24:49.277Z,3.03
2022-11-23T21:27:17.358Z,3.33
2022-11-23T21:29:45.156Z,2.78
2022-11-23T21:32:14.639Z,3.10
2022-11-23T21:34:42.458Z,2.47
2022-11-23T21:37:12.398Z,2.80
2022-11-23T21:39:41.477Z,2.90
2022-11-23T21:42:10.708Z,3.17
2022-11-23T21:44:38.452Z,2.57
2022-11-23T21:47:06.652Z,2.93
2022-11-23T21:49:34.350Z,2.95
2022-11-23T21:52:02.043Z,2.20
2022-11-23T21:54:29.709Z,3.17
2022-11-23T21:56:57.638Z,2.85
2022-11-23T21:59:26.727Z,3.13
2022-11-23T22:01:57.009Z,2.75
2022-11-23T22:04:25.101Z,2.60
2022-11-23T22:06:52.836Z,2.92
2022-11-23T22:09:20.830Z,3.20
2022-11-23T22:11:48.581Z,2.90
2022-11-23T22:14:19.297Z,2.35
2022-11-23T22:16:50.495Z,2.47
2022-11-23T22:19:18.802Z,3.40
2022-11-23T22:21:47.061Z,3.97
2022-11-23T22:24:16.251Z,2.90
2022-11-23T22:26:44.995Z,2.08
2022-11-23T22:29:12.910Z,2.35
2022-11-23T22:31:41.058Z,2.45
2022-11-23T22:34:12.818Z,2.47
2022-11-23T22:36:40.859Z,2.42
2022-11-23T22:39:09.348Z,2.35
2022-11-23T22:41:38.159Z,1.73
2022-11-23T22:44:07.813Z,1.80
2022-11-23T22:46:36.100Z,1.42
2022-11-23T22:49:03.985Z,1.35
2022-11-23T22:51:33.177Z,1.92
2022-11-23T22:54:01.737Z,1.65
2022-11-23T22:56:30.699Z,1.70
2022-11-23T22:58:59.000Z,1.88
2022-11-23T23:01:28.913Z,1.90
2022-11-23T23:03:58.248Z,1.23
2022-11-23T23:06:28.544Z,1.58
2022-11-23T23:09:01.419Z,1.45
2022-11-23T23:11:31.344Z,1.83
2022-11-23T23:13:59.544Z,1.50
2022-11-23T23:16:28.710Z,1.38
2022-11-23T23:18:57.487Z,1.52
2022-11-23T23:21:27.079Z,2.53
2022-11-23T23:23:59.200Z,2.22
2022-11-23T23:26:28.440Z,1.52
2022-11-23T23:28:56.953Z,2.38
2022-11-23T23:31:25.358Z,1.52
2022-11-23T23:33:54.417Z,1.50
2022-11-23T23:36:24.307Z,1.95
2022-11-23T23:38:52.702Z,1.50
2022-11-23T23:41:21.778Z,1.85
2022-11-23T23:43:49.506Z,1.70
2022-11-23T23:46:17.450Z,1.85
2022-11-23T23:48:45.679Z,2.00
2022-11-23T23:51:15.181Z,2.13
2022-11-23T23:53:43.727Z,1.35
2022-11-23T23:56:14.771Z,1.67
2022-11-23T23:58:44.172Z,1.50
